Time;durP1;ratioP1;P1;durP2;ratioP2;P2;SDS_P1;SDS_P2;PMS_P1;PMS_P2;Temp;Humidity;BMP_temperature;BMP_pressure;BME280_temperature;BME280_humidity;BME280_pressure;Samples;Min_cycle;Max_cycle;Signal;HPM_P1;HPM_P2
2023/09/18 04:01:50;;;;;;;4.60;1.87;;;20.70;81.10;;;;;;6269164;22;20975;-72
2023/09/18 04:04:17;;;;;;;3.60;1.90;;;20.80;81.00;;;;;;6307947;22;20399;-72
2023/09/18 04:06:46;;;;;;;2.90;1.73;;;20.90;81.10;;;;;;6307906;22;20400;-73
2023/09/18 04:09:14;;;;;;;3.70;2.07;;;21.10;81.20;;;;;;6307544;22;20431;-72
2023/09/18 04:11:41;;;;;;;4.00;2.00;;;21.10;80.30;;;;;;6290138;22;20421;-72
2023/09/18 04:14:08;;;;;;;6.97;2.30;;;21.30;80.00;;;;;;6277301;22;20745;-72
2023/09/18 04:16:37;;;;;;;3.33;1.80;;;21.20;80.10;;;;;;6277841;22;20407;-72
2023/09/18 04:19:05;;;;;;;2.90;1.60;;;21.20;80.60;;;;;;6276899;22;20408;-73
2023/09/18 04:21:31;;;;;;;3.80;2.20;;;21.30;80.20;;;;;;6276740;22;20471;-73
2023/09/18 04:23:58;;;;;;;5.17;1.90;;;21.20;80.20;;;;;;6276291;22;20440;-72
2023/09/18 04:26:29;;;;;;;2.33;1.57;;;21.20;79.80;;;;;;6277484;22;20397;-73
2023/09/18 04:28:56;;;;;;;4.23;2.07;;;21.30;79.60;;;;;;6276814;22;20390;-72
2023/09/18 04:31:22;;;;;;;2.67;1.80;;;21.50;79.50;;;;;;6276642;22;20421;-73
2023/09/18 04:33:49;;;;;;;4.20;1.87;;;21.50;79.20;;;;;;6276742;22;20405;-72
2023/09/18 04:36:17;;;;;;;2.63;1.90;;;21.60;79.30;;;;;;6276736;22;20398;-72
2023/09/18 04:38:44;;;;;;;3.60;2.27;;;21.70;78.90;;;;;;6276989;22;20405;-73
2023/09/18 04:41:11;;;;;;;3.27;1.60;;;21.80;78.90;;;;;;6276189;22;20924;-72
2023/09/18 04:43:39;;;;;;;3.10;1.80;;;22.00;78.50;;;;;;6276587;22;20496;-72
2023/09/18 04:46:05;;;;;;;3.50;1.70;;;21.80;79.20;;;;;;6276710;22;20428;-73
2023/09/18 04:48:33;;;;;;;2.87;1.60;;;21.80;78.90;;;;;;6276672;22;20408;-72
2023/09/18 04:51:00;;;;;;;3.00;1.70;;;21.80;78.60;;;;;;6276581;22;20417;-72
2023/09/18 04:53:29;;;;;;;5.03;1.90;;;21.60;78.60;;;;;;6276636;22;20401;-72
2023/09/18 04:55:55;;;;;;;5.57;2.07;;;21.60;79.00;;;;;;6276192;22;20879;-72
2023/09/18 04:58:22;;;;;;;2.60;1.67;;;21.70;79.20;;;;;;6276619;22;20404;-72
2023/09/18 05:00:54;;;;;;;2.60;1.57;;;21.80;78.90;;;;;;6276208;22;20444;-73
2023/09/18 05:03:21;;;;;;;4.10;1.80;;;21.90;78.70;;;;;;6276476;22;20429;-71
2023/09/18 05:05:48;;;;;;;4.13;2.20;;;21.50;79.40;;;;;;6276500;22;20408;-71
2023/09/18 05:08:15;;;;;;;4.77;1.80;;;21.40;80.20;;;;;;6276836;22;20397;-70
2023/09/18 05:10:43;;;;;;;2.53;1.70;;;21.50;80.50;;;;;;6276417;22;20432;-70
2023/09/18 05:13:10;;;;;;;3.70;1.70;;;21.60;80.40;;;;;;6276525;22;20470;-71
2023/09/18 05:15:37;;;;;;;2.27;1.40;;;21.60;79.90;;;;;;6276479;22;20397;-70
2023/09/18 05:18:04;;;;;;;3.50;1.50;;;21.60;80.00;;;;;;6276496;22;20436;-70
2023/09/18 05:20:32;;;;;;;2.97;1.80;;;21.50;79.80;;;;;;6276333;22;20397;-70
2023/09/18 05:23:01;;;;;;;7.13;1.90;;;21.40;80.40;;;;;;6275977;22;20951;-70
2023/09/18 05:25:31;;;;;;;3.10;1.77;;;21.40;80.50;;;;;;6276369;22;20401;-71
2023/09/18 05:28:01;;;;;;;2.70;1.50;;;21.40;80.50;;;;;;6276860;22;20471;-72
2023/09/18 05:30:30;;;;;;;3.37;2.10;;;21.50;80.40;;;;;;6275952;22;20394;-71
2023/09/18 05:33:04;;;;;;;2.70;1.60;;;21.60;79.90;;;;;;6276672;22;20397;-72
2023/09/18 05:35:30;;;;;;;3.27;1.57;;;21.30;80.20;;;;;;6276012;22;20848;-70
2023/09/18 05:37:58;;;;;;;4.10;2.00;;;21.20;80.90;;;;;;6276389;22;20405;-71
2023/09/18 05:40:26;;;;;;;3.57;2.00;;;21.30;80.70;;;;;;6276347;22;20452;-70
2023/09/18 05:42:53;;;;;;;5.47;2.10;;;21.30;81.00;;;;;;6276298;22;21014;-71
2023/09/18 05:45:22;;;;;;;3.27;2.20;;;21.20;80.90;;;;;;6276384;22;20401;-71
2023/09/18 05:47:49;;;;;;;2.00;1.10;;;21.30;81.20;;;;;;6277219;22;20880;-71
2023/09/18 05:50:16;;;;;;;3.57;2.43;;;21.30;80.50;;;;;;6277856;22;20747;-71
2023/09/18 05:52:44;;;;;;;3.57;1.93;;;21.40;80.90;;;;;;6278184;22;20460;-71
2023/09/18 05:55:11;;;;;;;2.67;1.60;;;21.40;80.60;;;;;;6278276;22;20401;-72
2023/09/18 05:57:38;;;;;;;3.57;2.00;;;21.30;80.60;;;;;;6277866;22;20907;-71
2023/09/18 06:00:06;;;;;;;3.80;2.10;;;21.40;80.80;;;;;;6278543;22;20404;-70
2023/09/18 06:02:34;;;;;;;4.10;1.80;;;21.20;80.50;;;;;;6277605;22;20445;-72
2023/09/18 06:05:02;;;;;;;3.60;1.97;;;21.10;81.10;;;;;;6278148;22;20451;-71
2023/09/18 06:07:29;;;;;;;3.60;1.90;;;21.00;81.00;;;;;;6277792;22;20912;-71
2023/09/18 06:09:57;;;;;;;4.30;1.77;;;20.90;81.70;;;;;;6278065;22;20423;-72
2023/09/18 06:12:24;;;;;;;3.70;1.87;;;20.80;81.80;;;;;;6277976;22;20432;-72
2023/09/18 06:14:51;;;;;;;3.13;1.60;;;20.70;81.90;;;;;;6278034;22;20466;-72
2023/09/18 06:17:18;;;;;;;4.80;2.33;;;20.70;82.20;;;;;;6277599;22;20880;-72
2023/09/18 06:19:46;;;;;;;3.20;2.10;;;20.80;82.50;;;;;;6278035;22;20404;-71
2023/09/18 06:22:13;;;;;;;4.00;1.80;;;20.60;83.30;;;;;;6278010;22;20467;-72
2023/09/18 06:24:40;;;;;;;2.60;1.83;;;20.70;83.20;;;;;;6277889;22;20441;-72
2023/09/18 06:27:07;;;;;;;5.47;2.47;;;20.60;83.40;;;;;;6277536;22;20880;-72
2023/09/18 06:29:34;;;;;;;3.40;1.87;;;20.50;83.40;;;;;;6277565;22;20927;-71
2023/09/18 06:32:01;;;;;;;3.67;1.90;;;20.60;83.80;;;;;;6277720;22;20421;-71
2023/09/18 06:34:28;;;;;;;2.57;1.90;;;20.60;83.60;;;;;;6277462;22;20946;-72
2023/09/18 06:36:56;;;;;;;3.27;1.90;;;20.70;83.70;;;;;;6277757;22;20401;-72
2023/09/18 06:39:23;;;;;;;3.73;1.80;;;20.90;82.80;;;;;;6277817;22;20397;-72
2023/09/18 06:41:50;;;;;;;2.73;1.60;;;20.70;83.40;;;;;;6277654;22;20444;-71
2023/09/18 06:44:17;;;;;;;2.10;1.53;;;20.60;83.70;;;;;;6277840;22;20433;-72
2023/09/18 06:46:44;;;;;;;3.33;1.43;;;20.60;84.50;;;;;;6277724;22;20397;-72
2023/09/18 06:49:10;;;;;;;3.23;1.70;;;20.50;85.10;;;;;;6278055;22;20431;-71
2023/09/18 06:51:37;;;;;;;3.50;1.73;;;20.50;84.90;;;;;;6277598;22;20421;-71
2023/09/18 06:54:05;;;;;;;4.83;1.90;;;20.40;85.30;;;;;;6277650;22;20397;-71
2023/09/18 06:56:32;;;;;;;2.67;1.60;;;20.50;85.50;;;;;;6277310;22;20951;-71
2023/09/18 06:58:58;;;;;;;2.70;1.43;;;20.40;85.60;;;;;;6277288;22;20397;-71
2023/09/18 07:01:27;;;;;;;3.70;1.80;;;20.50;85.10;;;;;;6277241;22;20490;-71
2023/09/18 07:03:53;;;;;;;2.77;1.60;;;20.60;85.20;;;;;;6278180;22;20522;-71
2023/09/18 07:06:21;;;;;;;4.40;2.20;;;20.70;85.00;;;;;;6277485;22;20401;-71
2023/09/18 07:08:49;;;;;;;3.10;1.50;;;20.70;85.20;;;;;;6277251;22;20432;-71
2023/09/18 07:11:17;;;;;;;2.20;1.47;;;20.90;84.30;;;;;;6277402;22;20427;-71
2023/09/18 07:13:44;;;;;;;2.37;1.33;;;21.00;84.00;;;;;;6277419;22;20400;-71
2023/09/18 07:16:11;;;;;;;2.10;1.20;;;21.10;84.00;;;;;;6277446;22;20405;-71
2023/09/18 07:18:38;;;;;;;2.33;1.50;;;21.10;83.50;;;;;;6277483;22;20401;-71
2023/09/18 07:21:05;;;;;;;2.07;1.00;;;21.20;82.90;;;;;;6277357;22;20425;-71
2023/09/18 07:23:31;;;;;;;2.83;1.33;;;21.20;81.10;;;;;;6277829;22;20437;-72
2023/09/18 07:25:58;;;;;;;3.80;1.30;;;21.10;81.70;;;;;;6277277;22;20397;-71
2023/09/18 07:28:26;;;;;;;2.10;1.20;;;21.20;81.70;;;;;;6277302;22;20436;-71
2023/09/18 07:30:53;;;;;;;3.47;1.60;;;21.10;80.50;;;;;;6276850;22;21042;-71
2023/09/18 07:33:20;;;;;;;2.60;1.20;;;21.20;80.40;;;;;;6277279;22;20401;-71
2023/09/18 07:35:48;;;;;;;3.20;1.30;;;21.10;80.50;;;;;;6277234;22;20401;-71
2023/09/18 07:38:15;;;;;;;2.40;1.07;;;21.10;79.80;;;;;;6277212;22;20397;-71
2023/09/18 07:40:41;;;;;;;2.40;1.40;;;21.10;80.70;;;;;;6277159;22;20422;-72
2023/09/18 07:43:08;;;;;;;2.00;1.10;;;21.10;81.50;;;;;;6277037;22;20471;-71
2023/09/18 07:45:38;;;;;;;3.10;1.27;;;21.20;82.10;;;;;;6277158;22;20405;-71
2023/09/18 07:48:06;;;;;;;2.73;1.10;;;21.10;81.10;;;;;;6277203;22;20401;-71
2023/09/18 07:50:33;;;;;;;2.13;1.30;;;21.20;81.50;;;;;;6276897;22;20749;-72
2023/09/18 07:52:59;;;;;;;1.80;1.00;;;21.20;80.40;;;;;;6277310;22;20492;-71
2023/09/18 07:55:26;;;;;;;2.40;1.30;;;21.30;80.20;;;;;;6277033;22;20412;-71
2023/09/18 07:57:53;;;;;;;4.60;1.07;;;21.40;79.90;;;;;;6277053;22;20421;-71
2023/09/18 08:00:22;;;;;;;1.73;0.90;;;21.50;80.00;;;;;;6277011;22;20401;-71
2023/09/18 08:02:54;;;;;;;2.60;1.00;;;21.60;78.90;;;;;;6276512;22;20482;-71
2023/09/18 08:05:21;;;;;;;2.10;0.97;;;21.70;79.60;;;;;;6276982;22;20382;-71
2023/09/18 08:07:49;;;;;;;2.20;1.07;;;21.80;79.50;;;;;;6276911;22;20393;-71
2023/09/18 08:10:16;;;;;;;2.10;1.00;;;21.60;78.70;;;;;;6276502;22;20429;-71
2023/09/18 08:12:42;;;;;;;2.73;1.03;;;21.60;78.90;;;;;;6277248;22;20421;-71
2023/09/18 08:15:11;;;;;;;2.70;0.97;;;21.60;78.30;;;;;;6276888;22;20393;-72
2023/09/18 08:17:37;;;;;;;1.90;0.90;;;21.40;78.70;;;;;;6276844;22;20397;-72
2023/09/18 08:20:12;;;;;;;2.10;0.97;;;21.40;79.90;;;;;;6276856;22;20419;-71
2023/09/18 08:22:39;;;;;;;2.13;1.10;;;21.30;79.30;;;;;;6276720;22;20416;-71
2023/09/18 08:25:07;;;;;;;1.73;0.90;;;21.00;80.40;;;;;;6276660;22;20433;-71
2023/09/18 08:27:35;;;;;;;1.80;0.97;;;20.80;80.90;;;;;;6276688;22;20401;-71
2023/09/18 08:30:02;;;;;;;1.80;0.90;;;20.70;81.60;;;;;;6277769;22;20405;-71
2023/09/18 08:32:30;;;;;;;2.20;0.93;;;20.60;81.80;;;;;;6276608;22;20496;-71
2023/09/18 08:34:58;;;;;;;3.60;1.30;;;20.60;81.90;;;;;;6276683;22;20415;-71
2023/09/18 08:37:26;;;;;;;2.33;1.13;;;20.60;82.70;;;;;;6276686;22;20409;-71
2023/09/18 08:39:53;;;;;;;2.23;1.03;;;20.50;82.70;;;;;;6276687;22;20412;-71
2023/09/18 08:42:22;;;;;;;1.73;0.90;;;20.50;82.60;;;;;;6276590;22;20471;-71
2023/09/18 08:44:52;;;;;;;3.60;1.10;;;20.50;82.80;;;;;;6276179;22;20777;-70
2023/09/18 08:47:19;;;;;;;1.57;0.80;;;20.50;82.80;;;;;;6276761;22;20412;-70
2023/09/18 08:49:46;;;;;;;1.80;0.90;;;20.30;83.10;;;;;;6276592;22;20404;-71
2023/09/18 08:52:15;;;;;;;2.20;0.90;;;20.10;84.60;;;;;;6276836;22;20422;-71
2023/09/18 08:54:43;;;;;;;1.90;0.83;;;20.10;85.20;;;;;;6276606;22;20429;-70
2023/09/18 08:57:12;;;;;;;2.00;0.90;;;20.10;85.20;;;;;;6276603;22;20406;-71
2023/09/18 08:59:40;;;;;;;1.47;0.70;;;20.10;85.00;;;;;;6276153;22;20935;-71
2023/09/18 09:02:11;;;;;;;1.80;0.90;;;20.10;84.70;;;;;;6276324;22;20437;-71
2023/09/18 09:04:38;;;;;;;2.00;1.00;;;19.90;85.20;;;;;;6276402;22;20516;-71
2023/09/18 09:07:06;;;;;;;1.67;0.80;;;19.90;85.80;;;;;;6276914;22;20432;-71
2023/09/18 09:09:33;;;;;;;1.60;0.80;;;20.10;86.30;;;;;;6276502;22;20401;-71
2023/09/18 09:12:01;;;;;;;2.37;0.97;;;20.00;85.80;;;;;;6276397;22;20421;-71
2023/09/18 09:14:28;;;;;;;3.30;0.80;;;19.90;85.90;;;;;;6276505;22;20403;-71
2023/09/18 09:16:57;;;;;;;1.70;0.90;;;19.90;86.80;;;;;;6276441;22;20734;-72
2023/09/18 09:19:36;;;;;;;3.27;0.87;;;19.90;86.60;;;;;;6276556;22;20783;-72
2023/09/18 09:22:03;;;;;;;2.90;1.13;;;19.80;87.60;;;;;;6278160;22;20424;-72
2023/09/18 09:24:41;;;;;;;2.23;1.10;;;19.70;88.40;;;;;;6278412;22;20441;-73
2023/09/18 09:27:09;;;;;;;1.97;1.00;;;19.80;87.90;;;;;;6278621;22;20404;-73
2023/09/18 09:29:36;;;;;;;3.17;1.00;;;19.90;88.10;;;;;;6278491;22;20408;-72
2023/09/18 09:32:16;;;;;;;2.53;0.90;;;19.70;87.90;;;;;;6278269;22;20447;-72
2023/09/18 09:34:44;;;;;;;2.63;1.10;;;19.80;88.10;;;;;;6278420;22;20765;-72
2023/09/18 09:37:11;;;;;;;2.57;1.00;;;20.00;87.50;;;;;;6278404;22;20405;-71
2023/09/18 09:39:49;;;;;;;2.80;1.23;;;20.00;87.50;;;;;;6278482;22;20507;-71
2023/09/18 09:42:24;;;;;;;3.33;1.10;;;20.10;87.70;;;;;;6278624;22;20424;-72
2023/09/18 09:45:01;;;;;;;1.87;1.07;;;20.30;86.80;;;;;;6277916;22;20902;-73
2023/09/18 09:47:30;;;;;;;2.93;1.10;;;20.40;87.20;;;;;;6278419;22;20408;-73
2023/09/18 09:49:56;;;;;;;4.00;0.97;;;20.40;86.80;;;;;;6278339;22;20412;-72
2023/09/18 09:52:23;;;;;;;2.40;1.13;;;20.30;86.90;;;;;;6278260;22;20417;-72
2023/09/18 09:54:50;;;;;;;2.27;1.17;;;20.30;87.00;;;;;;6278214;22;20397;-72
2023/09/18 09:57:18;;;;;;;3.17;1.40;;;20.30;87.40;;;;;;6278241;22;20412;-72
2023/09/18 09:59:45;;;;;;;4.73;1.10;;;20.30;87.50;;;;;;6278271;22;20409;-72
2023/09/18 10:02:19;;;;;;;1.87;1.10;;;20.10;88.30;;;;;;6277963;22;20437;-72
2023/09/18 10:04:48;;;;;;;4.63;1.40;;;20.20;89.30;;;;;;6278024;22;20516;-72
2023/09/18 10:07:17;;;;;;;1.80;0.90;;;20.10;89.10;;;;;;6278080;22;20405;-72
2023/09/18 10:09:44;;;;;;;2.10;1.00;;;20.20;88.10;;;;;;6278058;22;20730;-72
2023/09/18 10:12:13;;;;;;;1.90;1.00;;;20.20;88.10;;;;;;6278058;22;20432;-73
2023/09/18 10:14:42;;;;;;;2.00;1.00;;;20.10;87.60;;;;;;6294596;22;20942;-74
2023/09/18 10:17:16;;;;;;;2.77;1.30;;;19.90;87.80;;;;;;6308903;22;20895;-76
2023/09/18 10:19:51;;;;;;;1.80;0.90;;;19.80;88.40;;;;;;6309442;22;20394;-74
2023/09/18 10:22:26;;;;;;;3.40;1.10;;;19.60;89.20;;;;;;6308617;22;20801;-74
2023/09/18 10:25:00;;;;;;;2.57;1.00;;;19.60;89.80;;;;;;6284913;22;20793;-73
2023/09/18 10:27:28;;;;;;;2.10;1.37;;;19.70;89.90;;;;;;6277963;22;20720;-74
2023/09/18 10:29:56;;;;;;;2.00;0.97;;;19.70;88.80;;;;;;6277819;22;20915;-73
2023/09/18 10:32:25;;;;;;;2.13;1.13;;;19.60;89.00;;;;;;6277626;22;20892;-73
2023/09/18 10:34:52;;;;;;;2.70;1.30;;;19.50;88.80;;;;;;6277553;22;20425;-73
2023/09/18 10:37:19;;;;;;;2.10;1.03;;;19.40;89.30;;;;;;6277590;22;20718;-73
2023/09/18 10:39:49;;;;;;;2.57;1.37;;;19.40;89.90;;;;;;6277828;22;20402;-73
2023/09/18 10:42:19;;;;;;;2.00;0.90;;;19.50;90.30;;;;;;6277634;22;20444;-74
2023/09/18 10:44:46;;;;;;;2.27;1.03;;;19.40;89.30;;;;;;6277558;22;20452;-73
2023/09/18 10:47:15;;;;;;;2.00;1.17;;;19.40;90.10;;;;;;6277750;22;20397;-74
2023/09/18 10:49:42;;;;;;;1.60;0.90;;;19.40;89.90;;;;;;6277718;22;20748;-74
2023/09/18 10:52:13;;;;;;;3.80;1.60;;;19.60;89.70;;;;;;6277229;22;20474;-74
2023/09/18 10:54:40;;;;;;;1.80;0.80;;;19.60;89.80;;;;;;6277573;22;20409;-74
2023/09/18 10:57:07;;;;;;;2.83;1.23;;;19.80;89.40;;;;;;6277581;22;20405;-74
2023/09/18 10:59:33;;;;;;;2.40;1.20;;;19.80;88.50;;;;;;6277606;22;20404;-75
2023/09/18 11:02:05;;;;;;;1.70;0.90;;;19.80;88.80;;;;;;6277511;22;20785;-73
2023/09/18 11:04:33;;;;;;;1.80;0.90;;;19.80;88.00;;;;;;6277277;22;20544;-73
2023/09/18 11:07:05;;;;;;;2.20;1.13;;;19.80;88.00;;;;;;6277482;22;20504;-73
2023/09/18 11:09:40;;;;;;;1.97;1.00;;;19.80;88.40;;;;;;6277233;22;20912;-73
2023/09/18 11:12:08;;;;;;;2.27;0.90;;;19.70;87.90;;;;;;6277807;22;20389;-74
2023/09/18 11:14:57;;;;;;;2.57;0.90;;;19.70;88.10;;;;;;6277080;22;20429;-73
2023/09/18 11:17:34;;;;;;;2.00;1.30;;;19.60;88.50;;;;;;6277453;22;20875;-74
2023/09/18 11:20:12;;;;;;;1.70;1.10;;;19.50;89.20;;;;;;6277622;22;20397;-75
2023/09/18 11:22:40;;;;;;;2.10;1.13;;;19.70;89.20;;;;;;6277427;22;20435;-73
2023/09/18 11:25:30;;;;;;;2.37;1.17;;;19.60;88.80;;;;;;6277195;22;20846;-74
2023/09/18 11:27:57;;;;;;;1.90;1.20;;;19.60;88.40;;;;;;6277260;22;20405;-74
2023/09/18 11:30:24;;;;;;;2.77;1.20;;;19.50;88.40;;;;;;6276862;22;20896;-73
2023/09/18 11:32:51;;;;;;;2.00;1.00;;;19.50;88.60;;;;;;6277301;22;20405;-74
2023/09/18 11:35:20;;;;;;;4.03;1.00;;;19.60;88.80;;;;;;6276609;22;20425;-73
2023/09/18 11:37:47;;;;;;;1.80;0.93;;;19.70;88.20;;;;;;6277180;22;20401;-75
2023/09/18 11:40:33;;;;;;;1.90;0.90;;;19.80;87.90;;;;;;6277212;22;20405;-74
2023/09/18 11:43:30;;;;;;;1.93;0.90;;;19.90;88.10;;;;;;6277471;22;20401;-73
2023/09/18 11:45:59;;;;;;;1.70;0.97;;;19.90;87.60;;;;;;6183680;23;20994;-74
2023/09/18 11:48:29;;;;;;;2.10;0.93;;;19.90;87.30;;;;;;6273978;22;20402;-74
2023/09/18 11:50:58;;;;;;;1.70;0.90;;;20.00;87.50;;;;;;6305177;22;20385;-75
2023/09/18 11:53:27;;;;;;;2.20;0.90;;;20.00;87.00;;;;;;6291870;22;20432;-74
2023/09/18 11:55:54;;;;;;;1.53;0.80;;;20.10;87.00;;;;;;6277346;22;20868;-74
2023/09/18 11:58:23;;;;;;;1.50;0.80;;;20.20;86.60;;;;;;6277227;22;20405;-74
2023/09/18 12:00:50;;;;;;;1.80;1.00;;;20.10;86.70;;;;;;6277144;22;20410;-74
2023/09/18 12:03:25;;;;;;;1.80;0.70;;;20.10;86.70;;;;;;6277999;22;20401;-74
2023/09/18 12:05:54;;;;;;;2.17;0.90;;;20.10;86.80;;;;;;6276916;22;20420;-74
2023/09/18 12:08:23;;;;;;;2.00;0.90;;;20.10;86.30;;;;;;6277026;22;20401;-75
2023/09/18 12:10:51;;;;;;;1.60;0.90;;;20.20;86.50;;;;;;6277254;22;20405;-74
2023/09/18 12:13:17;;;;;;;1.73;0.93;;;20.20;86.90;;;;;;6276603;22;20405;-74
2023/09/18 12:15:44;;;;;;;1.73;0.80;;;20.20;86.90;;;;;;6277310;22;20397;-74
2023/09/18 12:18:12;;;;;;;1.60;1.00;;;20.20;86.60;;;;;;6277184;22;20401;-73
2023/09/18 12:20:45;;;;;;;1.60;0.80;;;20.20;86.20;;;;;;6277184;22;20405;-74
2023/09/18 12:23:12;;;;;;;1.77;0.97;;;20.00;87.10;;;;;;6277345;22;20420;-74
2023/09/18 12:25:41;;;;;;;1.80;1.00;;;20.20;87.10;;;;;;6276651;22;20962;-74
2023/09/18 12:28:08;;;;;;;1.90;0.93;;;20.20;86.90;;;;;;6276422;22;20910;-74
2023/09/18 12:30:35;;;;;;;1.60;0.90;;;20.30;86.70;;;;;;6276838;22;20405;-73
2023/09/18 12:33:03;;;;;;;2.07;1.17;;;20.40;86.00;;;;;;6276516;22;20409;-75
2023/09/18 12:35:30;;;;;;;2.53;0.90;;;20.40;86.50;;;;;;6276740;22;20476;-74
2023/09/18 12:37:58;;;;;;;1.80;0.90;;;20.50;85.60;;;;;;6276729;22;20401;-74
2023/09/18 12:40:25;;;;;;;2.07;1.10;;;20.70;84.90;;;;;;6276631;22;20402;-73
2023/09/18 12:42:55;;;;;;;1.60;0.80;;;20.80;84.90;;;;;;6276627;22;20405;-73
2023/09/18 12:45:22;;;;;;;3.60;1.20;;;21.10;84.70;;;;;;6276584;22;20441;-73
2023/09/18 12:47:50;;;;;;;2.87;1.00;;;21.20;83.70;;;;;;6276629;22;20424;-73
2023/09/18 12:50:16;;;;;;;1.70;0.90;;;21.40;83.20;;;;;;6276171;22;20397;-72
2023/09/18 12:52:44;;;;;;;1.50;0.80;;;21.70;82.50;;;;;;6276515;22;20729;-73
2023/09/18 12:55:23;;;;;;;1.73;0.93;;;21.70;81.80;;;;;;6276476;22;20516;-73
2023/09/18 12:57:50;;;;;;;2.00;1.00;;;21.60;80.70;;;;;;6276381;22;20385;-73
2023/09/18 13:00:22;;;;;;;1.80;1.03;;;21.60;80.90;;;;;;6276516;22;20492;-71
2023/09/18 13:02:51;;;;;;;1.80;1.00;;;21.80;80.20;;;;;;6276588;22;20404;-73
2023/09/18 13:05:20;;;;;;;1.60;0.80;;;21.60;79.10;;;;;;6276332;22;20503;-74
2023/09/18 13:07:48;;;;;;;1.80;1.00;;;21.70;79.40;;;;;;6276058;22;20401;-73
2023/09/18 13:10:15;;;;;;;2.13;0.80;;;21.60;79.60;;;;;;6276160;22;20398;-73
2023/09/18 13:12:44;;;;;;;2.13;0.80;;;21.80;80.30;;;;;;6276411;22;20787;-73
2023/09/18 13:15:12;;;;;;;1.90;0.97;;;22.00;79.60;;;;;;6275913;22;20461;-75
2023/09/18 13:17:45;;;;;;;2.57;1.00;;;21.80;77.80;;;;;;6276429;22;20466;-74
2023/09/18 13:20:14;;;;;;;1.87;0.97;;;21.60;78.20;;;;;;6276383;22;20404;-73
2023/09/18 13:22:41;;;;;;;1.80;0.90;;;21.60;78.70;;;;;;6276551;22;20420;-73
2023/09/18 13:25:10;;;;;;;1.90;0.93;;;21.60;79.50;;;;;;6275755;22;20441;-73
2023/09/18 13:27:37;;;;;;;2.10;0.97;;;21.70;79.70;;;;;;6276460;22;20484;-73
2023/09/18 13:30:07;;;;;;;2.47;1.00;;;21.80;78.70;;;;;;6276385;22;20398;-73
2023/09/18 13:32:36;;;;;;;1.90;1.00;;;22.00;78.20;;;;;;6276345;22;20413;-73
2023/09/18 13:35:05;;;;;;;1.83;0.87;;;22.30;77.20;;;;;;6276246;22;20424;-73
2023/09/18 13:37:33;;;;;;;2.07;0.97;;;22.80;75.60;;;;;;6276365;22;20485;-73
2023/09/18 13:40:02;;;;;;;1.73;0.97;;;23.10;74.90;;;;;;6276307;22;20397;-74
2023/09/18 13:42:30;;;;;;;1.90;0.97;;;23.10;74.40;;;;;;6276278;22;20415;-73
2023/09/18 13:44:57;;;;;;;1.83;1.00;;;22.80;74.70;;;;;;6276201;22;20846;-75
2023/09/18 13:47:24;;;;;;;1.90;0.90;;;22.50;74.30;;;;;;6276318;22;20401;-73
2023/09/18 13:49:51;;;;;;;3.40;0.90;;;22.10;76.50;;;;;;6276316;22;20402;-73
2023/09/18 13:52:19;;;;;;;1.87;1.00;;;22.00;76.70;;;;;;6276323;22;20405;-72
2023/09/18 13:54:50;;;;;;;1.90;1.03;;;21.90;76.90;;;;;;6275799;22;20806;-74
2023/09/18 13:57:18;;;;;;;1.50;0.70;;;21.90;76.70;;;;;;6276334;22;20382;-73
2023/09/18 13:59:45;;;;;;;1.73;0.90;;;22.00;77.00;;;;;;6276279;22;20425;-73
2023/09/18 14:02:12;;;;;;;1.70;0.97;;;22.10;77.20;;;;;;6276222;22;20401;-73
2023/09/18 14:04:39;;;;;;;2.37;1.00;;;22.40;76.90;;;;;;6276221;22;20478;-73
2023/09/18 14:07:06;;;;;;;1.80;0.90;;;22.50;75.60;;;;;;6276160;22;20437;-73
2023/09/18 14:09:34;;;;;;;1.70;0.90;;;22.40;75.50;;;;;;6276930;22;20406;-73
2023/09/18 14:12:02;;;;;;;1.70;0.80;;;22.50;75.00;;;;;;6278011;22;20408;-73
2023/09/18 14:14:29;;;;;;;1.97;1.03;;;22.50;74.50;;;;;;6277520;22;20486;-73
2023/09/18 14:16:57;;;;;;;2.23;1.03;;;22.50;75.60;;;;;;6277567;22;20921;-73
2023/09/18 14:19:24;;;;;;;2.13;1.13;;;23.10;74.40;;;;;;6277908;22;20429;-73
2023/09/18 14:21:51;;;;;;;1.70;0.90;;;23.60;72.80;;;;;;6277569;22;20748;-73
2023/09/18 14:24:22;;;;;;;3.53;0.97;;;23.60;72.30;;;;;;6277464;22;20421;-71
2023/09/18 14:26:50;;;;;;;2.07;0.93;;;23.80;72.80;;;;;;6277969;22;20425;-73
2023/09/18 14:29:16;;;;;;;1.70;0.80;;;23.70;72.40;;;;;;6277478;22;20747;-74
2023/09/18 14:31:43;;;;;;;2.00;0.90;;;23.40;71.10;;;;;;6277459;22;20922;-71
2023/09/18 14:34:10;;;;;;;1.70;0.80;;;23.10;72.60;;;;;;6277747;22;20421;-72
2023/09/18 14:36:38;;;;;;;1.67;0.93;;;23.30;72.40;;;;;;6277727;22;20398;-73
2023/09/18 14:39:07;;;;;;;2.30;0.90;;;23.40;71.80;;;;;;6277771;22;20405;-73
2023/09/18 14:41:34;;;;;;;1.77;0.90;;;23.60;70.70;;;;;;6277818;22;20546;-73
2023/09/18 14:44:03;;;;;;;2.13;0.90;;;23.70;70.30;;;;;;6277615;22;20428;-73
2023/09/18 14:46:30;;;;;;;2.10;0.90;;;23.90;69.80;;;;;;6277606;22;20469;-73
2023/09/18 14:48:57;;;;;;;1.60;0.73;;;24.20;68.20;;;;;;6277686;22;20401;-73
2023/09/18 14:51:24;;;;;;;1.90;0.90;;;24.80;67.60;;;;;;6277630;22;20401;-73
2023/09/18 14:53:51;;;;;;;2.17;0.90;;;26.00;65.80;;;;;;6277473;22;20760;-73
2023/09/18 14:56:17;;;;;;;1.67;0.93;;;26.80;64.30;;;;;;6277506;22;20393;-73
2023/09/18 14:58:44;;;;;;;3.23;1.00;;;27.40;63.00;;;;;;6277564;22;20401;-73
2023/09/18 15:01:13;;;;;;;1.50;0.80;;;27.60;62.00;;;;;;6277524;22;20397;-74
2023/09/18 15:03:40;;;;;;;1.67;0.83;;;27.50;61.10;;;;;;6277413;22;20421;-73
2023/09/18 15:06:07;;;;;;;1.83;0.90;;;27.10;62.30;;;;;;6277360;22;20437;-73
2023/09/18 15:08:34;;;;;;;1.70;0.90;;;26.30;63.10;;;;;;6277468;22;20458;-73
2023/09/18 15:11:00;;;;;;;1.97;0.90;;;25.90;64.60;;;;;;6277449;22;20408;-73
2023/09/18 15:13:27;;;;;;;1.70;0.80;;;25.40;65.90;;;;;;6277193;22;20428;-73
2023/09/18 15:15:54;;;;;;;1.87;1.03;;;24.40;67.30;;;;;;6277462;22;20378;-73
2023/09/18 15:18:22;;;;;;;2.00;0.80;;;24.00;68.30;;;;;;6277372;22;20397;-73
2023/09/18 15:20:54;;;;;;;1.77;0.80;;;23.80;69.60;;;;;;6277188;22;20459;-73
2023/09/18 15:23:21;;;;;;;1.60;0.70;;;23.40;70.00;;;;;;6277376;22;20386;-73
2023/09/18 15:25:50;;;;;;;2.37;1.03;;;23.00;70.30;;;;;;6277276;22;20511;-74
2023/09/18 15:28:17;;;;;;;1.70;0.90;;;22.90;71.00;;;;;;6277260;22;20409;-73
2023/09/18 15:30:44;;;;;;;2.50;0.90;;;22.80;71.30;;;;;;6277272;22;20730;-72
2023/09/18 15:33:11;;;;;;;1.70;0.70;;;22.90;71.60;;;;;;6277088;22;20401;-73
2023/09/18 15:35:39;;;;;;;1.50;0.70;;;22.90;71.70;;;;;;6277269;22;20437;-73
2023/09/18 15:38:07;;;;;;;2.23;0.93;;;23.00;71.70;;;;;;6277195;22;20769;-73
2023/09/18 15:40:34;;;;;;;1.73;0.90;;;22.90;71.50;;;;;;6277152;22;20413;-73
2023/09/18 15:43:01;;;;;;;1.50;0.80;;;22.80;72.20;;;;;;6277211;22;20406;-73
2023/09/18 15:45:28;;;;;;;1.80;1.03;;;22.60;72.50;;;;;;6277066;22;20402;-73
2023/09/18 15:47:54;;;;;;;2.30;1.00;;;22.50;72.80;;;;;;6277250;22;20408;-74
2023/09/18 15:50:22;;;;;;;1.80;0.90;;;22.50;72.50;;;;;;6277397;22;20798;-73
2023/09/18 15:52:50;;;;;;;2.20;1.13;;;22.40;72.60;;;;;;6276698;22;20735;-72
2023/09/18 15:55:17;;;;;;;2.27;1.07;;;22.40;73.20;;;;;;6276607;22;20951;-73
2023/09/18 15:57:44;;;;;;;1.60;0.90;;;22.30;73.00;;;;;;6277023;22;20484;-72
2023/09/18 16:00:12;;;;;;;1.50;0.73;;;22.10;74.00;;;;;;6276991;22;20397;-73
2023/09/18 16:02:40;;;;;;;1.63;0.80;;;22.20;74.00;;;;;;6276926;22;20401;-72
2023/09/18 16:05:07;;;;;;;1.80;0.83;;;22.10;73.40;;;;;;6276905;22;20417;-72
2023/09/18 16:07:34;;;;;;;2.23;0.80;;;22.10;73.30;;;;;;6276439;22;20843;-74
2023/09/18 16:10:04;;;;;;;2.07;0.90;;;22.00;73.50;;;;;;6276837;22;20401;-75
2023/09/18 16:12:33;;;;;;;2.20;1.00;;;22.10;74.40;;;;;;6276853;22;20448;-75
2023/09/18 16:15:00;;;;;;;1.83;0.97;;;22.20;73.60;;;;;;6295288;22;20452;-73
2023/09/18 16:17:26;;;;;;;1.70;0.90;;;22.20;73.30;;;;;;6307827;22;20393;-73
2023/09/18 16:19:54;;;;;;;1.50;0.80;;;22.20;73.20;;;;;;6307892;22;20410;-73
2023/09/18 16:22:20;;;;;;;1.50;0.80;;;22.00;74.00;;;;;;6307778;22;20404;-73
2023/09/18 16:24:47;;;;;;;2.00;0.90;;;22.00;74.00;;;;;;6290108;22;20421;-73
2023/09/18 16:27:15;;;;;;;1.97;0.90;;;21.80;74.20;;;;;;6276664;22;20437;-73
2023/09/18 16:29:42;;;;;;;1.70;0.90;;;21.90;74.50;;;;;;6276829;22;20403;-73
2023/09/18 16:32:09;;;;;;;1.90;1.00;;;21.90;74.10;;;;;;6276338;22;20401;-73
2023/09/18 16:34:36;;;;;;;1.90;0.97;;;21.90;74.50;;;;;;6276524;22;20432;-73
2023/09/18 16:37:04;;;;;;;1.70;0.90;;;21.90;74.90;;;;;;6276344;22;20398;-73
2023/09/18 16:39:30;;;;;;;2.07;0.90;;;21.90;75.00;;;;;;6276721;22;20424;-72
2023/09/18 16:41:57;;;;;;;2.07;1.03;;;21.90;74.90;;;;;;6277281;22;20720;-73
2023/09/18 16:44:25;;;;;;;1.80;0.90;;;21.80;74.80;;;;;;6276660;22;20425;-72
2023/09/18 16:46:52;;;;;;;1.50;0.80;;;21.60;75.30;;;;;;6276538;22;20433;-73
2023/09/18 16:49:22;;;;;;;2.10;1.10;;;21.50;75.10;;;;;;6276684;22;20405;-73
2023/09/18 16:51:49;;;;;;;1.80;0.93;;;21.40;75.80;;;;;;6276239;22;20415;-73
2023/09/18 16:54:16;;;;;;;1.90;1.10;;;21.40;75.80;;;;;;6276498;22;20425;-73